Portada
METAR-TAF:

METAR-TAF

Aeropuertos :

Gulf Shores, Alabama, Estados Unidos

latitud: 30-17-23N, longitud: 087-40-18W, altitud: 5 m

Observación

El informe se hizo hace 38 minutos, a las 20:55 UTC
Viento 7 kt del sur-sureste
Temperatura 21°C
Humedad 49%
Presión 1017 hPa
Visibilidad: 16.1 km
Cielo despejado

METAR: KJKA 022055Z AUTO 15007KT 10SM CLR 21/10 A3002 RMK AO2 T02140098

Hora: 16:33 (21:33 UTC)


TAF: falta

Observaciones y pronósticos meteorológicos de más de 4000 aeropuertos (mensajes METAR y TAF).

Los puntos amarillos y rojos representan las estaciones disponibles.

Ponga el ratón en el punto deseado para ver el nombre de la estación.

Haga clic para ver las observaciones y los pronósticos meteorológicos.

Para cambiar el mapa : haga clic en los botones verdes con una cruz de color negro para hacer un zoom, en el botón verde con un guión para alejar o en las flechas verdes para mapas adyacentes.


METAR-TAF: